2TN9 weather

Baptist Memorial Hospital Heliport
Union City, Tennessee, United States

Public forecast

Using degrees Fahrenheit for public forecast. Weather courtesy of forecast.io.

Closest aviation weather report (METAR) to Baptist Memorial Hospital Heliport

Closest report is Everett-Stewart Regional Airport, 3.5 nm (6.6 km) ESE. Retrieved 2020/05/26 17:15 UTC (0 seconds ago):

KUCY 261715Z AUTO 14011G16KT 10SM SCT027 SCT031 25/20 A2996 RMK A01

Closest aviation forecast (TAF) to Baptist Memorial Hospital Heliport

Closest forecast is Barkley Regional Airport, 41.0 nm (75.9 km) NNE. Retrieved 2020/05/26 12:24 UTC (5 hours ago):

TAF KPAH 261121Z 2612/2712 15006KT P6SM FEW150 FM261500 15012G19KT P6SM SCT035 BKN120 FM270000 14009KT P6SM VCSH FEW050 BKN120 FM270600 14006KT P6SM -SHRA SCT025 OVC080 FM270900 12006KT 6SM -SHRA BR OVC025